createdAt,value
2019-04-14T00:00:01.147Z,14.60
2019-04-14T00:02:31.707Z,14.37
2019-04-14T00:05:00.305Z,17.63
2019-04-14T00:07:27.678Z,16.33
2019-04-14T00:09:56.271Z,20.57
2019-04-14T00:12:23.417Z,28.23
2019-04-14T00:14:51.214Z,15.87
2019-04-14T00:17:19.222Z,15.03
2019-04-14T00:19:46.199Z,19.80
2019-04-14T00:22:14.081Z,19.10
2019-04-14T00:24:40.936Z,16.17
2019-04-14T00:27:08.540Z,15.27
2019-04-14T00:29:37.051Z,20.77
2019-04-14T00:32:05.200Z,20.07
2019-04-14T00:34:35.332Z,14.03
2019-04-14T00:37:05.497Z,17.80
2019-04-14T00:39:34.325Z,14.20
2019-04-14T00:42:04.988Z,14.03
2019-04-14T00:44:34.018Z,15.33
2019-04-14T00:47:03.041Z,17.23
2019-04-14T00:49:29.768Z,16.43
2019-04-14T00:51:57.785Z,13.07
2019-04-14T00:54:26.007Z,9.40
2019-04-14T00:56:54.082Z,12.10
2019-04-14T00:59:20.835Z,12.10
2019-04-14T01:01:48.409Z,11.70
2019-04-14T01:04:16.557Z,11.53
2019-04-14T01:06:44.712Z,14.20
2019-04-14T01:09:13.522Z,9.60
2019-04-14T01:11:40.401Z,8.83
2019-04-14T01:14:08.007Z,17.27
2019-04-14T01:16:34.967Z,12.43
2019-04-14T01:19:02.562Z,12.73
2019-04-14T01:21:30.615Z,11.33
2019-04-14T01:23:58.816Z,10.20
2019-04-14T01:26:26.682Z,15.87
2019-04-14T01:28:54.791Z,10.87
2019-04-14T01:31:23.074Z,12.07
2019-04-14T01:33:49.722Z,9.53
2019-04-14T01:36:17.030Z,15.30
2019-04-14T01:38:44.892Z,9.90
2019-04-14T01:41:12.833Z,11.60
2019-04-14T01:43:40.580Z,11.67
2019-04-14T01:46:14.858Z,11.47
2019-04-14T01:48:36.712Z,14.17
2019-04-14T01:51:05.501Z,13.40
2019-04-14T01:53:34.211Z,11.80
2019-04-14T01:56:03.497Z,8.90
2019-04-14T01:58:32.153Z,9.00
2019-04-14T02:01:01.845Z,10.23
2019-04-14T02:03:30.157Z,11.10
2019-04-14T02:05:58.190Z,16.13
2019-04-14T02:08:26.248Z,16.90
2019-04-14T02:10:52.940Z,11.23
2019-04-14T02:13:20.353Z,9.37
2019-04-14T02:15:48.425Z,14.17
2019-04-14T02:18:16.405Z,14.37
2019-04-14T02:20:44.607Z,14.70
2019-04-14T02:23:12.549Z,11.77
2019-04-14T02:25:40.429Z,8.90
2019-04-14T02:28:07.581Z,10.77
2019-04-14T02:30:41.707Z,12.43
2019-04-14T02:33:31.906Z,10.77
2019-04-14T02:38:34.476Z,10.23
2019-04-14T02:41:04.234Z,8.53
2019-04-14T02:43:29.564Z,13.87
2019-04-14T02:46:05.845Z,10.67
2019-04-14T02:50:48.208Z,9.57
2019-04-14T02:53:29.190Z,15.03
2019-04-14T02:55:49.150Z,10.57
2019-04-14T02:58:20.270Z,12.10
2019-04-14T03:03:16.926Z,11.33
2019-04-14T03:05:47.780Z,11.17
2019-04-14T03:08:07.525Z,9.27
2019-04-14T03:11:44.352Z,9.70
2019-04-14T03:16:47.249Z,8.30
2019-04-14T03:21:34.788Z,12.30
2019-04-14T03:24:15.892Z,11.80
2019-04-14T03:26:35.616Z,8.13
2019-04-14T03:29:05.380Z,11.03
2019-04-14T03:34:30.627Z,10.13
2019-04-14T03:37:22.006Z,9.60
2019-04-14T03:43:58.093Z,8.50
2019-04-14T03:46:34.472Z,8.87
2019-04-14T03:48:58.308Z,11.37
2019-04-14T03:51:28.326Z,7.87
2019-04-14T03:56:01.920Z,13.10
2019-04-14T03:58:23.212Z,9.17
2019-04-14T04:00:51.339Z,10.33
2019-04-14T04:03:19.515Z,13.53
2019-04-14T04:05:47.756Z,9.57
2019-04-14T04:08:15.711Z,7.70
2019-04-14T04:10:46.583Z,7.13
2019-04-14T04:13:13.306Z,10.83
2019-04-14T04:15:41.107Z,10.03
2019-04-14T04:18:09.791Z,6.37
2019-04-14T04:20:39.324Z,11.10
2019-04-14T04:23:07.950Z,7.93
2019-04-14T04:25:36.401Z,7.17
2019-04-14T04:28:06.036Z,11.07
2019-04-14T04:30:34.754Z,8.20
2019-04-14T04:33:04.392Z,10.70
2019-04-14T04:35:34.627Z,10.83
2019-04-14T04:38:03.427Z,7.77
2019-04-14T04:40:31.683Z,12.93
2019-04-14T04:42:59.091Z,12.03
2019-04-14T04:45:27.789Z,7.07
2019-04-14T04:47:55.539Z,14.83
2019-04-14T04:50:23.802Z,6.77
2019-04-14T04:52:51.782Z,10.47
2019-04-14T04:55:19.813Z,9.47
2019-04-14T04:57:46.747Z,10.50
2019-04-14T05:00:13.799Z,15.00
2019-04-14T05:02:41.700Z,6.83
2019-04-14T05:05:14.488Z,9.00
2019-04-14T05:07:41.142Z,17.87
2019-04-14T05:10:10.900Z,10.03
2019-04-14T05:12:39.838Z,10.40
2019-04-14T05:15:09.499Z,8.17
2019-04-14T05:17:38.877Z,12.13
2019-04-14T05:20:07.278Z,10.70
2019-04-14T05:22:35.318Z,7.20
2019-04-14T05:25:04.303Z,13.07
2019-04-14T05:27:31.934Z,15.97
2019-04-14T05:30:00.315Z,11.23
2019-04-14T05:32:28.404Z,11.27
2019-04-14T05:34:56.465Z,7.80
2019-04-14T05:37:24.664Z,6.07
2019-04-14T05:39:52.602Z,12.90
2019-04-14T05:42:24.058Z,7.30
2019-04-14T05:44:49.335Z,10.73
2019-04-14T05:47:17.567Z,9.90
2019-04-14T05:49:49.404Z,6.20
2019-04-14T05:52:14.074Z,10.93
2019-04-14T05:54:40.789Z,10.80
2019-04-14T05:57:07.409Z,8.07
2019-04-14T05:59:35.326Z,6.87
2019-04-14T06:02:02.591Z,9.43
2019-04-14T06:04:30.936Z,6.70
2019-04-14T06:06:57.798Z,9.90
2019-04-14T06:09:24.390Z,11.70
2019-04-14T06:11:51.105Z,7.27
2019-04-14T06:14:17.683Z,10.93
2019-04-14T06:16:46.639Z,9.17
2019-04-14T06:19:13.302Z,7.83
2019-04-14T06:21:39.920Z,8.17
2019-04-14T06:24:08.001Z,6.73
2019-04-14T06:26:34.661Z,16.73
2019-04-14T06:29:01.358Z,6.87
2019-04-14T06:31:29.930Z,14.10
2019-04-14T06:33:58.494Z,8.67
2019-04-14T06:36:27.186Z,7.40
2019-04-14T06:38:55.803Z,7.13
2019-04-14T06:41:22.386Z,8.33
2019-04-14T06:43:49.426Z,9.67
2019-04-14T06:46:16.174Z,7.10
2019-04-14T06:48:42.737Z,6.67
2019-04-14T06:51:09.311Z,8.63
2019-04-14T06:53:36.223Z,8.27
2019-04-14T06:56:03.275Z,8.20
2019-04-14T06:58:29.973Z,9.30
2019-04-14T07:00:56.656Z,7.17
2019-04-14T07:03:23.362Z,7.93
2019-04-14T07:05:50.056Z,11.90
2019-04-14T07:08:16.677Z,12.70
2019-04-14T07:10:43.676Z,5.70
2019-04-14T07:13:13.803Z,10.53
2019-04-14T07:15:39.005Z,5.00
2019-04-14T07:18:05.942Z,7.20
2019-04-14T07:20:32.688Z,5.33
2019-04-14T07:22:59.370Z,4.70
2019-04-14T07:25:26.067Z,11.00
2019-04-14T07:27:52.761Z,10.47
2019-04-14T07:30:21.394Z,8.73
2019-04-14T07:32:50.273Z,9.73
2019-04-14T07:35:16.878Z,7.80
2019-04-14T07:37:45.471Z,7.53
2019-04-14T07:40:14.232Z,10.20
2019-04-14T07:42:42.781Z,7.00
2019-04-14T07:45:12.313Z,7.27
2019-04-14T07:47:41.126Z,8.77
2019-04-14T07:50:14.947Z,7.40
2019-04-14T07:52:40.703Z,9.97
2019-04-14T07:55:09.663Z,8.97
2019-04-14T07:57:38.249Z,8.53
2019-04-14T08:00:08.743Z,5.50
2019-04-14T08:02:37.430Z,5.90
2019-04-14T08:05:06.978Z,5.70
2019-04-14T08:07:33.651Z,6.43
2019-04-14T08:10:00.483Z,10.43
2019-04-14T08:12:27.387Z,5.27
2019-04-14T08:14:54.163Z,5.63
2019-04-14T08:17:20.769Z,6.50
2019-04-14T08:19:47.400Z,8.27
2019-04-14T08:22:14.359Z,5.23
2019-04-14T08:24:41.159Z,9.70
2019-04-14T08:27:07.885Z,4.97
2019-04-14T08:29:34.708Z,9.20
2019-04-14T08:32:01.553Z,6.20
2019-04-14T08:34:29.266Z,4.33
2019-04-14T08:36:56.055Z,7.63
2019-04-14T08:39:22.769Z,4.53
2019-04-14T08:41:51.435Z,4.30
2019-04-14T08:44:19.968Z,4.00
2019-04-14T08:46:48.474Z,4.27
2019-04-14T08:49:17.214Z,4.33
2019-04-14T08:51:45.745Z,7.43
2019-04-14T08:54:14.349Z,3.00
2019-04-14T08:56:42.881Z,3.23
2019-04-14T08:59:11.718Z,2.93
2019-04-14T09:01:38.855Z,4.63
2019-04-14T09:04:07.555Z,2.80
2019-04-14T09:06:36.215Z,3.17
2019-04-14T09:09:07.422Z,3.23
2019-04-14T09:11:34.327Z,6.07
2019-04-14T09:14:01.353Z,5.67
2019-04-14T09:16:27.943Z,5.60
2019-04-14T09:19:06.900Z,5.80
2019-04-14T09:21:23.159Z,5.73
2019-04-14T09:23:51.200Z,4.23
2019-04-14T09:26:17.848Z,5.83
2019-04-14T09:28:44.472Z,4.00
2019-04-14T09:31:11.163Z,5.53
2019-04-14T09:33:37.902Z,4.33
2019-04-14T09:36:04.586Z,6.30
2019-04-14T09:38:31.193Z,7.60
2019-04-14T09:40:57.781Z,5.47
2019-04-14T09:43:24.410Z,8.93
2019-04-14T09:45:51.005Z,12.27
2019-04-14T09:48:17.569Z,9.37
2019-04-14T09:50:44.364Z,7.90
2019-04-14T09:53:11.181Z,3.93
2019-04-14T09:55:38.962Z,4.93
2019-04-14T09:58:05.725Z,5.23
2019-04-14T10:00:34.385Z,4.13
2019-04-14T10:03:01.140Z,5.97
2019-04-14T10:05:27.921Z,5.60
2019-04-14T10:07:54.741Z,7.77
2019-04-14T10:10:21.646Z,4.73
2019-04-14T10:12:48.417Z,5.70
2019-04-14T10:15:15.098Z,4.70
2019-04-14T10:17:41.769Z,6.67
2019-04-14T10:20:08.606Z,5.43
2019-04-14T10:22:35.331Z,3.23
2019-04-14T10:25:03.919Z,3.77
2019-04-14T10:27:30.684Z,5.60
2019-04-14T10:29:57.718Z,5.77
2019-04-14T10:32:24.316Z,4.67
2019-04-14T10:34:51.054Z,4.67
2019-04-14T10:37:17.753Z,6.30
2019-04-14T10:39:44.480Z,5.07
2019-04-14T10:42:11.099Z,6.93
2019-04-14T10:44:41.128Z,3.63
2019-04-14T10:47:08.377Z,6.90
2019-04-14T10:49:35.420Z,6.17
2019-04-14T10:52:02.298Z,5.43
2019-04-14T10:54:29.340Z,7.13
2019-04-14T10:56:55.923Z,6.40
2019-04-14T10:59:22.657Z,4.43
2019-04-14T11:01:49.553Z,3.73
2019-04-14T11:04:16.388Z,10.13
2019-04-14T11:06:45.882Z,8.47
2019-04-14T11:09:14.633Z,4.47
2019-04-14T11:11:41.647Z,7.60
2019-04-14T11:14:08.314Z,7.87
2019-04-14T11:16:35.056Z,5.20
2019-04-14T11:19:01.978Z,5.27
2019-04-14T11:21:28.692Z,7.40
2019-04-14T11:23:55.384Z,7.30
2019-04-14T11:26:22.305Z,4.23
2019-04-14T11:28:49.125Z,5.20
2019-04-14T11:31:17.718Z,6.80
2019-04-14T11:33:46.241Z,3.93
2019-04-14T11:36:14.842Z,12.53
2019-04-14T11:38:43.550Z,7.43
2019-04-14T11:41:12.313Z,5.00
2019-04-14T11:43:38.946Z,4.30
2019-04-14T11:46:09.714Z,3.57
2019-04-14T11:48:36.584Z,5.07
2019-04-14T11:51:03.562Z,4.17
2019-04-14T11:53:30.517Z,7.47
2019-04-14T11:55:57.245Z,3.20
2019-04-14T11:58:24.050Z,8.83
2019-04-14T12:00:52.832Z,6.23
2019-04-14T12:03:19.547Z,15.50
2019-04-14T12:05:48.405Z,6.03
2019-04-14T12:08:17.088Z,7.73
2019-04-14T12:10:43.878Z,8.03
2019-04-14T12:13:12.450Z,3.90
2019-04-14T12:15:39.114Z,3.40
2019-04-14T12:18:06.690Z,5.43
2019-04-14T12:20:33.323Z,4.33
2019-04-14T12:23:00.145Z,6.47
2019-04-14T12:25:26.727Z,4.00
2019-04-14T12:27:53.566Z,5.20
2019-04-14T12:30:20.568Z,6.30
2019-04-14T12:32:47.260Z,7.93
2019-04-14T12:35:14.776Z,7.07
2019-04-14T12:37:41.544Z,4.00
2019-04-14T12:40:08.697Z,4.13
2019-04-14T12:42:37.382Z,3.83
2019-04-14T12:45:07.880Z,4.37
2019-04-14T12:47:40.111Z,6.57
2019-04-14T12:50:08.920Z,4.77
2019-04-14T12:52:35.674Z,3.63
2019-04-14T12:55:05.263Z,3.13
2019-04-14T12:57:33.750Z,8.70
2019-04-14T13:00:00.457Z,3.47
2019-04-14T13:02:29.048Z,6.87
2019-04-14T13:04:55.710Z,3.77
2019-04-14T13:07:22.441Z,4.73
2019-04-14T13:09:49.144Z,4.47
2019-04-14T13:12:15.984Z,4.07
2019-04-14T13:14:42.797Z,7.73
2019-04-14T13:17:09.540Z,5.10
2019-04-14T13:19:36.439Z,8.67
2019-04-14T13:22:03.601Z,5.60
2019-04-14T13:24:30.385Z,5.43
2019-04-14T13:26:57.103Z,5.93
2019-04-14T13:29:24.050Z,8.57
2019-04-14T13:31:50.822Z,5.03
2019-04-14T13:34:17.810Z,7.60
2019-04-14T13:36:44.713Z,7.83
2019-04-14T13:39:12.790Z,6.10
2019-04-14T13:41:39.922Z,5.70
2019-04-14T13:44:06.974Z,8.27
2019-04-14T13:46:33.741Z,7.20
2019-04-14T13:49:00.550Z,6.30
2019-04-14T13:51:27.427Z,9.40
2019-04-14T13:53:54.138Z,5.07
2019-04-14T13:56:21.024Z,7.50
2019-04-14T13:58:47.710Z,7.00
2019-04-14T14:01:14.489Z,4.73
2019-04-14T14:03:41.125Z,5.93
2019-04-14T14:06:09.110Z,5.60
2019-04-14T14:08:36.038Z,6.87
2019-04-14T14:11:04.910Z,4.43
2019-04-14T14:13:33.457Z,5.70
2019-04-14T14:16:02.444Z,6.50
2019-04-14T14:18:31.046Z,4.37
2019-04-14T14:20:59.773Z,6.93
2019-04-14T14:23:28.355Z,7.33
2019-04-14T14:25:56.868Z,4.10
2019-04-14T14:28:23.427Z,7.30
2019-04-14T14:30:50.060Z,4.63
2019-04-14T14:33:18.273Z,4.13
2019-04-14T14:35:45.149Z,9.30
2019-04-14T14:38:12.073Z,3.23
2019-04-14T14:40:38.831Z,4.17
2019-04-14T14:43:05.596Z,3.73
2019-04-14T14:45:34.212Z,3.47
2019-04-14T14:48:02.893Z,5.67
2019-04-14T14:50:31.480Z,3.93
2019-04-14T14:52:58.086Z,4.37
2019-04-14T14:55:24.659Z,4.97
2019-04-14T14:57:51.339Z,5.43
2019-04-14T15:00:20.162Z,6.53
2019-04-14T15:02:46.808Z,4.07
2019-04-14T15:05:13.471Z,5.17
2019-04-14T15:07:40.136Z,5.53
2019-04-14T15:10:07.029Z,5.30
2019-04-14T15:12:33.670Z,4.00
2019-04-14T15:15:00.427Z,5.93
2019-04-14T15:17:27.257Z,3.00
2019-04-14T15:19:57.131Z,4.20
2019-04-14T15:22:23.974Z,5.30
2019-04-14T15:24:50.529Z,4.20
2019-04-14T15:27:17.669Z,7.93
2019-04-14T15:29:44.241Z,3.70
2019-04-14T15:32:10.978Z,5.20
2019-04-14T15:34:37.778Z,6.43
2019-04-14T15:37:04.662Z,5.43
2019-04-14T15:39:31.257Z,6.60
2019-04-14T15:41:58.102Z,4.27
2019-04-14T15:44:24.699Z,7.97
2019-04-14T15:46:51.430Z,4.50
2019-04-14T15:49:18.216Z,4.20
2019-04-14T15:51:44.807Z,3.57
2019-04-14T15:54:11.364Z,7.07
2019-04-14T15:56:39.998Z,9.77
2019-04-14T15:59:08.760Z,4.93
2019-04-14T16:01:37.499Z,6.57
2019-04-14T16:04:06.434Z,5.03
2019-04-14T16:06:35.055Z,4.80
2019-04-14T16:09:03.588Z,4.23
2019-04-14T16:11:32.071Z,8.20
2019-04-14T16:14:01.035Z,5.00
2019-04-14T16:16:29.680Z,8.10
2019-04-14T16:18:58.263Z,5.53
2019-04-14T16:21:26.318Z,4.00
2019-04-14T16:23:52.929Z,7.17
2019-04-14T16:26:19.783Z,5.83
2019-04-14T16:28:48.342Z,5.13
2019-04-14T16:31:16.944Z,9.90
2019-04-14T16:33:45.470Z,8.37
2019-04-14T16:36:12.377Z,7.10
2019-04-14T16:39:36.905Z,4.97
2019-04-14T16:42:05.226Z,7.60
2019-04-14T16:44:31.923Z,5.37
2019-04-14T16:46:58.616Z,7.47
2019-04-14T16:49:25.324Z,5.87
2019-04-14T16:51:54.377Z,8.37
2019-04-14T16:54:22.906Z,7.53
2019-04-14T16:56:51.448Z,10.30
2019-04-14T16:59:18.003Z,9.57
2019-04-14T17:01:46.055Z,11.13
2019-04-14T17:04:15.629Z,6.37
2019-04-14T17:06:42.339Z,5.50
2019-04-14T17:09:08.978Z,15.13
2019-04-14T17:11:39.231Z,5.70
2019-04-14T17:14:07.858Z,7.27
2019-04-14T17:16:37.546Z,6.87
2019-04-14T17:19:06.197Z,5.33
2019-04-14T17:21:37.933Z,7.00
2019-04-14T17:24:16.261Z,5.67
2019-04-14T17:26:37.192Z,13.53
2019-04-14T17:29:05.780Z,9.13
2019-04-14T17:31:34.556Z,8.00
2019-04-14T17:34:03.051Z,6.87
2019-04-14T17:36:31.768Z,12.77
2019-04-14T17:39:01.995Z,10.30
2019-04-14T17:41:32.504Z,11.73
2019-04-14T17:44:01.223Z,13.83
2019-04-14T17:46:29.999Z,17.00
2019-04-14T17:48:56.969Z,19.83
2019-04-14T17:51:25.596Z,12.80
2019-04-14T17:53:54.305Z,13.63
2019-04-14T17:57:18.796Z,15.00
2019-04-14T17:59:47.352Z,15.33
2019-04-14T18:02:16.001Z,14.83
2019-04-14T18:04:44.784Z,17.30
2019-04-14T18:07:13.421Z,8.23
2019-04-14T18:09:42.086Z,16.10
2019-04-14T18:12:12.577Z,15.27
2019-04-14T18:14:41.110Z,15.80
2019-04-14T18:17:09.814Z,10.93
2019-04-14T18:19:38.513Z,13.63
2019-04-14T18:22:05.307Z,7.33
2019-04-14T18:24:42.060Z,16.77
2019-04-14T18:27:02.106Z,10.97
2019-04-14T18:29:30.852Z,14.43
2019-04-14T18:31:59.497Z,17.30
2019-04-14T18:34:28.213Z,11.43
2019-04-14T18:36:56.828Z,12.97
2019-04-14T18:39:25.333Z,11.40
2019-04-14T18:41:53.872Z,17.80
2019-04-14T18:44:22.626Z,15.17
2019-04-14T18:46:51.179Z,13.87
2019-04-14T18:49:20.324Z,10.30
2019-04-14T18:51:51.124Z,12.90
2019-04-14T18:54:20.025Z,13.40
2019-04-14T18:56:46.690Z,19.50
2019-04-14T18:59:15.558Z,16.60
2019-04-14T19:01:44.147Z,17.30
2019-04-14T19:04:10.733Z,21.57
2019-04-14T19:06:37.419Z,21.60
2019-04-14T19:09:06.716Z,23.57
2019-04-14T19:11:37.131Z,18.90
2019-04-14T19:14:05.691Z,20.40
2019-04-14T19:16:39.593Z,20.57
2019-04-14T19:19:04.581Z,25.50
2019-04-14T19:21:32.174Z,21.47
2019-04-14T19:23:58.952Z,30.70
2019-04-14T19:26:25.710Z,21.17
2019-04-14T19:28:52.314Z,28.27
2019-04-14T19:31:19.097Z,26.07
2019-04-14T19:33:47.046Z,29.50
2019-04-14T19:36:13.863Z,25.57
2019-04-14T19:38:42.340Z,28.70
2019-04-14T19:41:09.571Z,29.53
2019-04-14T19:43:36.525Z,30.93
2019-04-14T19:46:03.635Z,28.87
2019-04-14T19:48:30.982Z,29.13
2019-04-14T19:50:58.047Z,27.30
2019-04-14T19:53:25.247Z,25.20
2019-04-14T19:55:52.472Z,30.80
2019-04-14T19:58:19.509Z,32.60
2019-04-14T20:00:46.924Z,32.13
2019-04-14T20:03:13.690Z,29.17
2019-04-14T20:05:45.280Z,28.37
2019-04-14T20:08:15.069Z,37.93
2019-04-14T20:10:42.849Z,34.77
2019-04-14T20:13:10.060Z,33.57
2019-04-14T20:15:39.181Z,32.77
2019-04-14T20:18:08.027Z,36.53
2019-04-14T20:20:36.683Z,33.07
2019-04-14T20:23:05.892Z,37.00
2019-04-14T20:25:34.716Z,39.67
2019-04-14T20:28:03.519Z,48.20
2019-04-14T20:30:32.886Z,47.23
2019-04-14T20:32:59.723Z,35.40
2019-04-14T20:35:26.770Z,42.23
2019-04-14T20:37:53.405Z,37.07
2019-04-14T20:40:20.118Z,37.90
2019-04-14T20:42:46.809Z,38.27
2019-04-14T20:45:14.074Z,39.80
2019-04-14T20:47:40.749Z,42.83
2019-04-14T20:50:08.073Z,39.67
2019-04-14T20:52:36.614Z,37.40
2019-04-14T20:55:05.831Z,36.90
2019-04-14T20:57:32.641Z,34.93
2019-04-14T20:59:59.577Z,37.20
2019-04-14T21:02:28.307Z,33.90
2019-04-14T21:04:54.927Z,32.40
2019-04-14T21:07:23.614Z,34.53
2019-04-14T21:09:52.132Z,39.83
2019-04-14T21:12:20.804Z,35.10
2019-04-14T21:14:49.454Z,27.90
2019-04-14T21:17:17.936Z,33.30
2019-04-14T21:19:46.631Z,28.57
2019-04-14T21:22:16.683Z,27.80
2019-04-14T21:24:45.263Z,22.23
2019-04-14T21:27:14.299Z,24.73
2019-04-14T21:29:42.887Z,25.40
2019-04-14T21:32:11.546Z,34.03
2019-04-14T21:34:40.206Z,31.67
2019-04-14T21:37:08.683Z,30.43
2019-04-14T21:39:40.392Z,30.07
2019-04-14T21:42:06.979Z,30.07
2019-04-14T21:44:33.553Z,27.90
2019-04-14T21:47:00.403Z,27.30
2019-04-14T21:49:27.071Z,31.60
2019-04-14T21:51:55.788Z,30.80
2019-04-14T21:54:22.551Z,31.53
2019-04-14T21:56:51.427Z,26.90
2019-04-14T21:59:19.910Z,26.40
2019-04-14T22:01:48.815Z,26.73
2019-04-14T22:04:17.716Z,25.27
2019-04-14T22:06:46.476Z,23.13
2019-04-14T22:09:15.177Z,26.83
2019-04-14T22:11:42.017Z,30.13
2019-04-14T22:14:08.659Z,24.77
2019-04-14T22:16:35.508Z,28.23
2019-04-14T22:19:02.086Z,30.67
2019-04-14T22:21:28.660Z,22.83
2019-04-14T22:24:01.644Z,18.87
2019-04-14T22:26:26.221Z,30.77
2019-04-14T22:28:52.521Z,22.90
2019-04-14T22:31:19.185Z,19.80
2019-04-14T22:33:45.967Z,27.40
2019-04-14T22:36:12.535Z,23.67
2019-04-14T22:38:40.674Z,22.53
2019-04-14T22:41:07.422Z,19.97
2019-04-14T22:43:33.987Z,20.57
2019-04-14T22:46:00.602Z,19.83
2019-04-14T22:48:27.251Z,26.30
2019-04-14T22:50:53.891Z,19.57
2019-04-14T22:53:20.585Z,23.60
2019-04-14T22:55:47.186Z,18.90
2019-04-14T22:58:14.002Z,19.83
2019-04-14T23:00:42.963Z,23.87
2019-04-14T23:03:11.673Z,21.87
2019-04-14T23:05:40.313Z,21.10
2019-04-14T23:08:17.563Z,24.03
2019-04-14T23:10:46.031Z,23.03
2019-04-14T23:13:14.710Z,21.97
2019-04-14T23:15:43.422Z,23.10
2019-04-14T23:18:12.051Z,22.67
2019-04-14T23:20:41.574Z,14.97
2019-04-14T23:23:10.277Z,20.97
2019-04-14T23:25:37.147Z,19.17
2019-04-14T23:28:03.975Z,17.63
2019-04-14T23:30:30.829Z,15.97
2019-04-14T23:32:57.537Z,28.70
2019-04-14T23:35:24.372Z,27.03
2019-04-14T23:37:51.036Z,20.67
2019-04-14T23:40:17.978Z,25.57
2019-04-14T23:42:44.742Z,20.00
2019-04-14T23:45:11.692Z,21.10
2019-04-14T23:47:38.565Z,18.73
2019-04-14T23:50:07.104Z,15.20
2019-04-14T23:52:33.738Z,15.07
2019-04-14T23:55:00.303Z,16.63
2019-04-14T23:57:26.938Z,16.40
2019-04-14T23:59:53.621Z,11.97
